Storm Events Database

Event Details

Event Thunderstorm Wind
Magnitude 55 kts.
State MISSISSIPPI
County/Area CARROLL
WFO JAN
Begin Date 07/30/2009 15:36:00 CST-6
Begin Range 1
Begin Azimuth ENE
Begin Location TEOC
Begin Lat/Lon 33.59/-90.06
End Date 07/30/2009 15:36:00 CST-6
Deaths Direct/Indirect 0/0 (fatality details below, when available...)
Injuries Direct/Indirect 0/0
Property Damage 1.00K
Crop Damage 0.00K
Episode Narrative On the afternoon of July 30th a strong upper disturbance moved over the region and combined with deep moisture, moderate instability, and unseasonably strong winds aloft. The combination of these features caused an organized severe weather outbreak which produced widespread thunderstorm straight line wind damage. Some of the hardest hit areas included locations across Carroll, Grenada, Montgomery, and Leake Counties. Here, widespread trees and power lines were blown down.
Event Narrative Several trees were blown down in the Teoc Community.


All events for this episode:

Location County/Zone St. Date Time T.Z. Type Mag Dth Inj PrD CrD
Totals: 0 0 1.081M 0.00K
BONHOMIE FORREST CO. MS 07/30/2009 12:02 CST-6 Hail 0.88 in. 0 0 0.00K 0.00K
COLUMBIA MARION CO. MS 07/30/2009 12:47 CST-6 Thunderstorm Wind 50 kts. EG 0 0 3.00K 0.00K
EPLEY LAMAR CO. MS 07/30/2009 13:05 CST-6 Thunderstorm Wind 50 kts. EG 0 0 10.00K 0.00K
SIMRALL WARREN CO. MS 07/30/2009 13:47 CST-6 Thunderstorm Wind 55 kts. EG 0 0 2.00K 0.00K
UTICA HINDS CO. MS 07/30/2009 14:00 CST-6 Thunderstorm Wind 55 kts. EG 0 0 1.00K 0.00K
LEBANON HINDS CO. MS 07/30/2009 14:13 CST-6 Thunderstorm Wind 50 kts. EG 0 0 0.00K 0.00K
CARY SHARKEY CO. MS 07/30/2009 14:20 CST-6 Thunderstorm Wind 60 kts. EG 0 0 3.00K 0.00K
CLINTON HINDS CO. MS 07/30/2009 14:30 CST-6 Thunderstorm Wind 60 kts. EG 0 0 15.00K 0.00K
SCOTT (ZONE) SCOTT (ZONE) MS 07/30/2009 14:41 CST-6 Strong Wind 43 kts. EG 0 0 0.80K 0.00K
FLORA MADISON CO. MS 07/30/2009 14:42 CST-6 Thunderstorm Wind 65 kts. EG 0 0 10.00K 0.00K
RIDGELAND MADISON CO. MS 07/30/2009 14:45 CST-6 Thunderstorm Wind 65 kts. EG 0 0 30.00K 0.00K
HICKORY NEWTON CO. MS 07/30/2009 14:46 CST-6 Thunderstorm Wind 50 kts. EG 0 0 1.00K 0.00K
YAZOO CITY BARRIER A YAZOO CO. MS 07/30/2009 14:52 CST-6 Thunderstorm Wind 52 kts. EG 0 0 0.00K 0.00K
BELZONI MUNI ARPT HUMPHREYS CO. MS 07/30/2009 14:55 CST-6 Thunderstorm Wind 67 kts. EG 0 0 150.00K 0.00K
BEE LAKE HOLMES CO. MS 07/30/2009 14:57 CST-6 Thunderstorm Wind 55 kts. EG 0 0 8.00K 0.00K
MARIS TOWN MADISON CO. MS 07/30/2009 14:59 CST-6 Thunderstorm Wind 62 kts. EG 0 0 4.00K 0.00K
TCHULA HOLMES CO. MS 07/30/2009 15:05 CST-6 Thunderstorm Wind 60 kts. EG 0 0 8.00K 0.00K
QUITO KIMBROUGH ARPT LEFLORE CO. MS 07/30/2009 15:13 CST-6 Thunderstorm Wind 68 kts. EG 0 0 33.00K 0.00K
TRUITT MADISON CO. MS 07/30/2009 15:18 CST-6 Thunderstorm Wind 56 kts. EG 0 0 3.00K 0.00K
BLACK HAWK CARROLL CO. MS 07/30/2009 15:21 CST-6 Thunderstorm Wind 65 kts. EG 0 0 50.00K 0.00K
BERTICE LEAKE CO. MS 07/30/2009 15:22 CST-6 Thunderstorm Wind 66 kts. EG 0 0 60.00K 0.00K
GOOD HOPE LEAKE CO. MS 07/30/2009 15:25 CST-6 Thunderstorm Wind 68 kts. EG 0 0 250.00K 0.00K
TEOC CARROLL CO. MS 07/30/2009 15:36 CST-6 Thunderstorm Wind 55 kts. EG 0 0 1.00K 0.00K
SOMMERVILLE COMMUNIT CARROLL CO. MS 07/30/2009 15:36 CST-6 Thunderstorm Wind 55 kts. EG 0 0 0.00K 0.00K
PARSONS GRENADA CO. MS 07/30/2009 15:40 CST-6 Thunderstorm Wind 65 kts. EG 0 0 110.00K 0.00K
CARTHAGE LEAKE CO. MS 07/30/2009 15:40 CST-6 Lightning 0 0 8.00K 0.00K
VAIDEN CARROLL CO. MS 07/30/2009 15:40 CST-6 Thunderstorm Wind 58 kts. EG 0 0 10.00K 0.00K
FOLTZ MONTGOMERY CO. MS 07/30/2009 15:42 CST-6 Thunderstorm Wind 68 kts. EG 0 0 200.00K 0.00K
WAMBA ATTALA CO. MS 07/30/2009 15:48 CST-6 Thunderstorm Wind 55 kts. EG 0 0 0.00K 0.00K
ETHEL ATTALA CO. MS 07/30/2009 15:55 CST-6 Thunderstorm Wind 55 kts. EG 0 0 0.00K 0.00K
ALICE NESHOBA CO. MS 07/30/2009 16:00 CST-6 Thunderstorm Wind 57 kts. EG 0 0 10.00K 0.00K
EMBRY WEBSTER CO. MS 07/30/2009 16:07 CST-6 Thunderstorm Wind 55 kts. EG 0 0 3.00K 0.00K
PLATTSBURG WINSTON CO. MS 07/30/2009 16:10 CST-6 Thunderstorm Wind 60 kts. EG 0 0 3.00K 0.00K
WEIR CHOCTAW CO. MS 07/30/2009 16:24 CST-6 Thunderstorm Wind 55 kts. EG 0 0 3.00K 0.00K
BUGH OKTIBBEHA CO. MS 07/30/2009 16:34 CST-6 Thunderstorm Wind 65 kts. EG 0 0 40.00K 0.00K
PHEBA CLAY CO. MS 07/30/2009 16:51 CST-6 Thunderstorm Wind 58 kts. EG 0 0 30.00K 0.00K
INTERSTATE CITY LOWNDES CO. MS 07/30/2009 16:57 CST-6 Thunderstorm Wind 50 kts. EG 0 0 5.00K 0.00K
WEST PT CLAY CO. MS 07/30/2009 17:01 CST-6 Thunderstorm Wind 58 kts. EG 0 0 12.00K 0.00K
PRESTON KEMPER CO. MS 07/31/2009 02:15 CST-6 Thunderstorm Wind 50 kts. EG 0 0 4.00K 0.00K
Totals: 0 0 1.081M 0.00K